createdAt,value
2022-08-17T00:01:26.252Z,3.30
2022-08-17T00:06:32.521Z,2.75
2022-08-17T00:11:39.445Z,1.77
2022-08-17T00:16:51.001Z,4.72
2022-08-17T00:22:33.912Z,3.50
2022-08-17T00:27:26.500Z,2.40
2022-08-17T00:33:13.603Z,2.53
2022-08-17T00:37:55.606Z,1.83
2022-08-17T00:43:13.634Z,3.55
2022-08-17T00:48:29.471Z,1.90
2022-08-17T00:53:41.918Z,1.73
2022-08-17T00:58:45.741Z,1.77
2022-08-17T01:03:50.189Z,2.20
2022-08-17T01:08:57.495Z,3.03
2022-08-17T01:14:01.495Z,1.50
2022-08-17T01:19:16.744Z,2.33
2022-08-17T01:24:21.892Z,2.95
2022-08-17T01:29:26.854Z,2.00
2022-08-17T01:34:42.745Z,3.33
2022-08-17T01:39:52.758Z,2.05
2022-08-17T01:44:58.916Z,2.80
2022-08-17T01:50:08.602Z,2.55
2022-08-17T01:55:16.713Z,1.48
2022-08-17T02:00:20.349Z,7.47
2022-08-17T02:05:24.567Z,1.63
2022-08-17T02:10:33.917Z,2.45
2022-08-17T02:15:38.016Z,2.03
2022-08-17T02:20:42.955Z,1.10
2022-08-17T02:25:48.900Z,1.17
2022-08-17T02:31:01.463Z,2.70
2022-08-17T02:36:09.053Z,2.13
2022-08-17T02:41:14.128Z,6.95
2022-08-17T02:46:19.559Z,2.17
2022-08-17T02:51:23.165Z,1.60
2022-08-17T02:56:28.389Z,1.93
2022-08-17T03:01:32.036Z,14.25
2022-08-17T03:06:35.665Z,1.97
2022-08-17T03:11:40.596Z,18.75
2022-08-17T03:16:44.240Z,1.23
2022-08-17T03:21:54.959Z,11.70
2022-08-17T03:27:00.416Z,1.35
2022-08-17T03:32:12.400Z,1.50
2022-08-17T03:37:16.078Z,2.85
2022-08-17T03:42:31.929Z,0.87
2022-08-17T03:47:53.897Z,0.82
2022-08-17T03:53:15.608Z,1.12
2022-08-17T03:58:20.909Z,1.15
2022-08-17T04:03:24.480Z,0.60
2022-08-17T04:08:28.070Z,1.75
2022-08-17T04:13:32.983Z,0.90
2022-08-17T04:18:36.577Z,1.20
2022-08-17T04:23:40.101Z,1.80
2022-08-17T04:28:45.770Z,1.17
2022-08-17T04:33:49.404Z,1.60
2022-08-17T04:38:52.940Z,1.57
2022-08-17T04:43:58.530Z,1.70
2022-08-17T04:49:04.264Z,1.55
2022-08-17T04:54:09.889Z,1.98
2022-08-17T04:59:17.317Z,2.40
2022-08-17T05:04:33.867Z,1.27
2022-08-17T05:09:38.326Z,1.10
2022-08-17T05:14:43.249Z,5.93
2022-08-17T05:19:51.781Z,0.90
2022-08-17T05:24:55.744Z,1.65
2022-08-17T05:30:00.766Z,1.77
2022-08-17T05:35:04.587Z,1.65
2022-08-17T05:40:09.938Z,1.77
2022-08-17T05:45:16.832Z,0.98
2022-08-17T05:50:49.493Z,1.92
2022-08-17T05:56:03.340Z,2.67
2022-08-17T06:01:15.214Z,2.20
2022-08-17T06:06:32.860Z,2.10
2022-08-17T06:11:42.260Z,2.00
2022-08-17T06:16:51.107Z,7.28
2022-08-17T06:21:56.886Z,1.85
2022-08-17T06:27:09.710Z,2.85
2022-08-17T06:32:15.105Z,3.45
2022-08-17T06:37:32.601Z,3.00
2022-08-17T06:43:02.358Z,4.30
2022-08-17T06:48:16.347Z,4.03
2022-08-17T06:53:25.772Z,3.95
2022-08-17T06:58:33.290Z,4.62
2022-08-17T07:03:42.739Z,3.15
2022-08-17T07:08:53.993Z,2.85
2022-08-17T07:14:16.947Z,3.83
2022-08-17T07:19:24.780Z,10.48
2022-08-17T07:24:37.957Z,3.03
2022-08-17T07:29:46.391Z,5.75
2022-08-17T07:35:11.535Z,2.97
2022-08-17T07:40:27.007Z,5.15
2022-08-17T07:45:49.499Z,3.65
2022-08-17T07:50:57.265Z,4.65
2022-08-17T07:56:01.017Z,5.05
2022-08-17T08:01:08.948Z,10.83
2022-08-17T08:06:24.273Z,3.87
2022-08-17T08:11:33.224Z,4.32
2022-08-17T08:16:36.802Z,4.32
2022-08-17T08:21:48.199Z,5.30
2022-08-17T08:26:57.206Z,4.37
2022-08-17T08:32:07.616Z,5.25
2022-08-17T08:37:30.847Z,3.53
2022-08-17T08:42:46.714Z,7.72
2022-08-17T08:48:05.370Z,3.95
2022-08-17T08:53:21.336Z,3.67
2022-08-17T08:58:41.098Z,5.28
2022-08-17T09:04:19.919Z,3.10
2022-08-17T09:09:35.268Z,7.60
2022-08-17T09:14:47.360Z,5.25
2022-08-17T09:19:56.428Z,4.07
2022-08-17T09:25:10.050Z,6.80
2022-08-17T09:30:14.928Z,5.57
2022-08-17T09:35:22.833Z,3.47
2022-08-17T09:40:33.950Z,5.20
2022-08-17T09:45:42.794Z,6.65
2022-08-17T09:51:04.358Z,3.65
2022-08-17T09:56:29.495Z,10.70
2022-08-17T10:01:39.810Z,3.35
2022-08-17T10:06:52.976Z,3.72
2022-08-17T10:12:20.372Z,3.80
2022-08-17T10:17:36.337Z,5.70
2022-08-17T10:23:02.144Z,6.68
2022-08-17T10:28:19.714Z,6.37
2022-08-17T10:33:26.878Z,3.22
2022-08-17T10:38:41.018Z,5.35
2022-08-17T10:43:55.856Z,4.57
2022-08-17T10:49:32.644Z,4.93
2022-08-17T10:54:46.261Z,3.50
2022-08-17T10:59:53.571Z,3.53
2022-08-17T11:05:18.686Z,5.28
2022-08-17T11:10:37.248Z,4.97
2022-08-17T11:15:58.734Z,1.12
2022-08-17T11:21:23.928Z,1.17
2022-08-17T11:26:32.046Z,1.62
2022-08-17T11:31:40.444Z,1.55
2022-08-17T11:37:33.054Z,1.58
2022-08-17T11:42:51.297Z,1.52
2022-08-17T11:48:28.802Z,1.37
2022-08-17T11:54:30.637Z,2.05
2022-08-17T11:59:58.876Z,3.12
2022-08-17T12:05:27.317Z,0.95
2022-08-17T12:10:34.323Z,5.12
2022-08-17T12:15:42.373Z,1.67
2022-08-17T12:20:56.544Z,1.45
2022-08-17T12:31:08.850Z,1.23
2022-08-17T12:36:17.142Z,1.30
2022-08-17T12:41:31.648Z,0.93
2022-08-17T12:46:48.958Z,2.30
2022-08-17T12:52:13.455Z,0.77
2022-08-17T12:57:20.540Z,1.35
2022-08-17T13:02:42.441Z,1.33
2022-08-17T13:07:48.483Z,0.45
2022-08-17T13:12:53.180Z,0.47
2022-08-17T13:18:04.093Z,0.82
2022-08-17T13:23:20.445Z,0.65
2022-08-17T13:28:32.444Z,0.20
2022-08-17T13:33:44.901Z,0.30
2022-08-17T13:38:51.641Z,1.15
2022-08-17T13:43:55.223Z,0.40
2022-08-17T13:49:04.458Z,1.45
2022-08-17T13:54:24.499Z,1.85
2022-08-17T13:59:52.894Z,0.40
2022-08-17T14:05:01.887Z,0.47
2022-08-17T14:10:15.291Z,0.20
2022-08-17T14:15:21.550Z,0.40
2022-08-17T14:20:25.662Z,0.22
2022-08-17T14:25:31.124Z,1.02
2022-08-17T14:30:35.646Z,2.60
2022-08-17T14:35:39.259Z,4.18
2022-08-17T14:40:44.213Z,0.20
2022-08-17T14:45:48.179Z,0.43
2022-08-17T14:55:56.429Z,0.30
2022-08-17T15:01:00.278Z,0.52
2022-08-17T15:06:03.983Z,0.32
2022-08-17T15:11:14.310Z,0.65
2022-08-17T15:16:20.051Z,0.95
2022-08-17T15:21:23.631Z,0.82
2022-08-17T15:26:28.755Z,0.73
2022-08-17T15:31:32.588Z,0.73
2022-08-17T15:36:36.336Z,0.77
2022-08-17T15:41:41.273Z,0.70
2022-08-17T15:46:44.839Z,0.60
2022-08-17T15:51:48.369Z,0.83
2022-08-17T15:56:53.447Z,0.60
2022-08-17T16:03:15.302Z,0.47
2022-08-17T16:07:26.381Z,0.30
2022-08-17T16:12:31.805Z,0.47
2022-08-17T16:17:39.730Z,1.30
2022-08-17T16:22:46.492Z,0.50
2022-08-17T16:27:53.540Z,0.90
2022-08-17T16:32:59.582Z,0.30
2022-08-17T16:38:03.390Z,4.18
2022-08-17T16:43:10.629Z,2.40
2022-08-17T16:48:15.605Z,0.73
2022-08-17T16:53:20.251Z,1.00
2022-08-17T16:58:25.210Z,1.70
2022-08-17T17:03:30.793Z,1.35
2022-08-17T17:08:42.077Z,1.12
2022-08-17T17:13:54.036Z,1.80
2022-08-17T17:19:06.593Z,0.28
2022-08-17T17:24:16.059Z,0.45
2022-08-17T17:29:47.390Z,0.45
2022-08-17T17:34:58.775Z,0.30
2022-08-17T17:40:07.529Z,0.68
2022-08-17T17:45:18.188Z,0.20
2022-08-17T17:50:30.564Z,0.52
2022-08-17T17:55:48.268Z,0.52
2022-08-17T18:01:05.946Z,0.60
2022-08-17T18:06:21.593Z,0.43
2022-08-17T18:11:55.042Z,2.78
2022-08-17T18:17:04.614Z,0.55
2022-08-17T18:22:14.109Z,0.50
2022-08-17T18:27:24.922Z,0.70
2022-08-17T18:32:36.250Z,1.00
2022-08-17T18:37:45.059Z,1.02
2022-08-17T18:43:03.045Z,0.35
2022-08-17T18:48:26.205Z,0.70
2022-08-17T18:53:37.791Z,1.45
2022-08-17T18:58:41.371Z,3.60
2022-08-17T19:03:46.689Z,0.50
2022-08-17T19:08:50.417Z,0.52
2022-08-17T19:13:58.506Z,3.30
2022-08-17T19:19:12.703Z,1.52
2022-08-17T19:24:20.165Z,1.27
2022-08-17T19:29:30.598Z,1.52
2022-08-17T19:34:37.719Z,0.52
2022-08-17T19:39:49.049Z,0.98
2022-08-17T19:45:00.599Z,4.37
2022-08-17T19:50:13.243Z,3.70
2022-08-17T19:55:26.179Z,1.70
2022-08-17T20:00:31.557Z,2.17
2022-08-17T20:06:01.343Z,7.07
2022-08-17T20:11:09.998Z,5.68
2022-08-17T20:16:13.806Z,4.78
2022-08-17T20:21:24.641Z,3.70
2022-08-17T20:26:36.385Z,3.90
2022-08-17T20:31:47.019Z,10.32
2022-08-17T20:37:02.520Z,12.52
2022-08-17T20:42:10.963Z,5.10
2022-08-17T20:47:26.925Z,4.68
2022-08-17T20:52:54.239Z,6.32
2022-08-17T20:57:57.877Z,5.93
2022-08-17T21:03:47.929Z,7.47
2022-08-17T21:08:59.363Z,3.83
2022-08-17T21:14:10.241Z,8.02
2022-08-17T21:19:31.048Z,7.93
2022-08-17T21:24:50.087Z,4.25
2022-08-17T21:30:12.341Z,4.97
2022-08-17T21:35:30.062Z,5.70
2022-08-17T21:40:35.300Z,12.60
2022-08-17T21:45:42.946Z,6.72
2022-08-17T21:50:58.361Z,11.18
2022-08-17T21:56:03.809Z,8.80
2022-08-17T22:01:21.752Z,7.40
2022-08-17T22:06:27.963Z,9.38
2022-08-17T22:11:33.174Z,9.93
2022-08-17T22:16:37.543Z,8.30
2022-08-17T22:21:41.215Z,8.38
2022-08-17T22:27:05.911Z,14.83
2022-08-17T22:32:09.579Z,10.98
2022-08-17T22:37:28.877Z,17.13
2022-08-17T22:42:35.376Z,8.90
2022-08-17T22:47:42.948Z,10.57
2022-08-17T22:53:09.904Z,11.10
2022-08-17T22:58:35.262Z,13.00
2022-08-17T23:03:55.162Z,8.15
2022-08-17T23:08:58.701Z,11.35
2022-08-17T23:14:03.815Z,11.43
2022-08-17T23:19:08.393Z,15.65
2022-08-17T23:24:13.554Z,14.52
2022-08-17T23:29:20.560Z,15.52
2022-08-17T23:34:24.290Z,17.27
2022-08-17T23:39:28.406Z,14.37
2022-08-17T23:44:33.913Z,17.75
2022-08-17T23:49:41.390Z,12.30
2022-08-17T23:54:47.178Z,17.23
2022-08-17T23:59:52.321Z,10.55
